createdAt,value
2022-08-17T00:00:06.221Z,19.10
2022-08-17T00:02:35.998Z,19.13
2022-08-17T00:05:11.851Z,19.13
2022-08-17T00:07:39.673Z,19.07
2022-08-17T00:10:08.346Z,19.02
2022-08-17T00:12:44.314Z,18.93
2022-08-17T00:15:14.379Z,18.93
2022-08-17T00:17:43.420Z,18.84
2022-08-17T00:20:13.426Z,18.80
2022-08-17T00:22:42.944Z,18.81
2022-08-17T00:25:14.482Z,18.80
2022-08-17T00:27:42.454Z,18.78
2022-08-17T00:30:12.627Z,18.79
2022-08-17T00:33:11.821Z,18.80
2022-08-17T00:35:31.174Z,18.75
2022-08-17T00:37:58.738Z,18.76
2022-08-17T00:40:27.627Z,18.74
2022-08-17T00:43:36.666Z,18.82
2022-08-17T00:46:07.544Z,18.71
2022-08-17T00:48:36.474Z,18.61
2022-08-17T00:51:12.905Z,18.63
2022-08-17T00:53:44.103Z,18.63
2022-08-17T00:56:19.434Z,18.61
2022-08-17T00:58:47.069Z,18.64
2022-08-17T01:01:21.179Z,18.60
2022-08-17T01:03:50.119Z,18.63
2022-08-17T01:06:20.729Z,18.54
2022-08-17T01:08:57.273Z,18.58
2022-08-17T01:11:26.328Z,18.45
2022-08-17T01:13:54.431Z,18.45
2022-08-17T01:16:25.340Z,18.41
2022-08-17T01:18:56.381Z,18.33
2022-08-17T01:21:30.256Z,18.31
2022-08-17T01:23:59.703Z,18.26
2022-08-17T01:26:29.047Z,18.24
2022-08-17T01:28:57.026Z,18.19
2022-08-17T01:31:28.938Z,18.13
2022-08-17T01:33:57.846Z,18.10
2022-08-17T01:36:25.469Z,18.16
2022-08-17T01:38:53.085Z,18.12
2022-08-17T01:41:23.137Z,18.27
2022-08-17T01:43:55.019Z,18.27
2022-08-17T01:46:26.916Z,18.14
2022-08-17T01:48:56.259Z,18.08
2022-08-17T01:51:24.878Z,18.07
2022-08-17T01:53:55.222Z,17.95
2022-08-17T01:56:26.883Z,17.88
2022-08-17T01:58:55.173Z,17.94
2022-08-17T02:01:26.388Z,17.96
2022-08-17T02:04:00.447Z,17.91
2022-08-17T02:06:30.483Z,17.87
2022-08-17T02:09:03.111Z,17.91
2022-08-17T02:11:34.447Z,17.88
2022-08-17T02:14:04.093Z,17.89
2022-08-17T02:16:37.541Z,17.91
2022-08-17T02:19:09.083Z,17.88
2022-08-17T02:21:37.243Z,17.92
2022-08-17T02:24:05.981Z,17.83
2022-08-17T02:26:36.178Z,17.84
2022-08-17T02:29:04.237Z,17.88
2022-08-17T02:31:32.274Z,17.81
2022-08-17T02:34:04.469Z,17.84
2022-08-17T02:36:34.662Z,17.75
2022-08-17T02:39:02.791Z,17.76
2022-08-17T02:41:30.705Z,17.82
2022-08-17T02:43:59.715Z,17.83
2022-08-17T02:46:27.823Z,17.84
2022-08-17T02:48:55.668Z,17.79
2022-08-17T02:51:23.565Z,17.76
2022-08-17T02:53:51.228Z,17.77
2022-08-17T02:56:19.133Z,17.82
2022-08-17T02:58:47.441Z,17.81
2022-08-17T03:01:16.499Z,17.84
2022-08-17T03:03:44.222Z,17.86
2022-08-17T03:06:12.070Z,17.85
2022-08-17T03:08:40.537Z,17.85
2022-08-17T03:11:08.174Z,17.89
2022-08-17T03:13:35.851Z,17.79
2022-08-17T03:16:03.525Z,17.79
2022-08-17T03:18:32.615Z,17.82
2022-08-17T03:21:04.251Z,17.83
2022-08-17T03:23:32.689Z,17.83
2022-08-17T03:26:01.313Z,17.79
2022-08-17T03:28:29.890Z,17.79
2022-08-17T03:30:57.461Z,17.75
2022-08-17T03:33:25.134Z,17.72
2022-08-17T03:35:54.200Z,17.73
2022-08-17T03:38:21.987Z,17.75
2022-08-17T03:40:58.156Z,17.77
2022-08-17T03:43:28.892Z,17.74
2022-08-17T03:46:33.829Z,17.74
2022-08-17T03:49:19.388Z,17.80
2022-08-17T03:52:05.997Z,17.82
2022-08-17T03:54:51.555Z,17.81
2022-08-17T03:57:20.292Z,17.81
2022-08-17T03:59:48.338Z,17.86
2022-08-17T04:02:19.840Z,17.93
2022-08-17T04:04:50.606Z,18.05
2022-08-17T04:07:20.634Z,18.16
2022-08-17T04:09:48.691Z,18.52
2022-08-17T04:12:17.912Z,18.93
2022-08-17T04:14:52.214Z,19.17
2022-08-17T04:17:24.410Z,19.29
2022-08-17T04:19:52.216Z,19.25
2022-08-17T04:22:32.344Z,19.23
2022-08-17T04:25:08.926Z,19.50
2022-08-17T04:27:37.470Z,19.55
2022-08-17T04:30:06.865Z,19.53
2022-08-17T04:33:04.057Z,19.53
2022-08-17T04:35:37.487Z,19.61
2022-08-17T04:38:07.622Z,19.67
2022-08-17T04:40:53.445Z,19.70
2022-08-17T04:43:22.831Z,19.78
2022-08-17T04:45:56.048Z,19.92
2022-08-17T04:48:35.255Z,20.05
2022-08-17T04:51:07.073Z,20.07
2022-08-17T04:53:37.242Z,20.04
2022-08-17T04:56:05.625Z,19.95
2022-08-17T04:58:33.348Z,19.89
2022-08-17T05:01:01.387Z,19.82
2022-08-17T05:03:29.298Z,19.79
2022-08-17T05:05:56.951Z,19.88
2022-08-17T05:08:24.747Z,20.09
2022-08-17T05:10:53.820Z,20.23
2022-08-17T05:13:24.527Z,20.43
2022-08-17T05:15:55.887Z,20.49
2022-08-17T05:18:24.674Z,20.46
2022-08-17T05:20:53.374Z,20.43
2022-08-17T05:23:22.793Z,20.43
2022-08-17T05:25:54.614Z,20.41
2022-08-17T05:28:26.716Z,20.37
2022-08-17T05:30:56.772Z,20.29
2022-08-17T05:33:27.385Z,20.42
2022-08-17T05:35:57.439Z,20.56
2022-08-17T05:38:27.639Z,20.58
2022-08-17T05:40:57.394Z,20.64
2022-08-17T05:43:28.251Z,20.52
2022-08-17T05:46:03.794Z,20.40
2022-08-17T05:48:40.014Z,20.27
2022-08-17T05:51:31.248Z,20.33
2022-08-17T05:54:10.608Z,20.62
2022-08-17T05:57:00.935Z,20.60
2022-08-17T05:59:36.172Z,20.53
2022-08-17T06:02:10.835Z,20.62
2022-08-17T06:04:56.931Z,20.64
2022-08-17T06:07:32.750Z,20.42
2022-08-17T06:10:09.171Z,20.21
2022-08-17T06:12:47.185Z,20.27
2022-08-17T06:15:27.309Z,20.44
2022-08-17T06:17:58.399Z,20.60
2022-08-17T06:20:29.742Z,20.77
2022-08-17T06:23:03.851Z,20.98
2022-08-17T06:25:37.874Z,21.05
2022-08-17T06:28:13.842Z,21.18
2022-08-17T06:30:59.902Z,21.27
2022-08-17T06:33:34.064Z,21.35
2022-08-17T06:36:11.303Z,21.44
2022-08-17T06:38:54.749Z,21.37
2022-08-17T06:41:31.414Z,21.26
2022-08-17T06:44:42.258Z,21.10
2022-08-17T06:47:08.937Z,21.17
2022-08-17T06:49:45.311Z,21.32
2022-08-17T06:52:46.026Z,21.39
2022-08-17T06:55:18.703Z,21.50
2022-08-17T06:57:51.082Z,21.54
2022-08-17T07:00:23.178Z,21.44
2022-08-17T07:02:55.296Z,21.63
2022-08-17T07:05:27.890Z,21.61
2022-08-17T07:08:02.732Z,21.65
2022-08-17T07:10:36.019Z,21.67
2022-08-17T07:13:15.303Z,21.67
2022-08-17T07:15:45.804Z,21.49
2022-08-17T07:18:13.825Z,21.53
2022-08-17T07:20:45.823Z,21.45
2022-08-17T07:23:23.857Z,21.51
2022-08-17T07:25:51.641Z,21.40
2022-08-17T07:28:24.346Z,21.31
2022-08-17T07:30:55.399Z,21.24
2022-08-17T07:33:26.542Z,21.35
2022-08-17T07:35:54.920Z,21.24
2022-08-17T07:38:26.910Z,21.25
2022-08-17T07:41:03.761Z,21.43
2022-08-17T07:43:34.936Z,21.57
2022-08-17T07:46:35.435Z,21.65
2022-08-17T07:49:37.042Z,21.43
2022-08-17T07:52:48.128Z,21.51
2022-08-17T07:54:59.136Z,21.39
2022-08-17T07:57:37.067Z,21.38
2022-08-17T08:00:16.913Z,21.74
2022-08-17T08:02:59.913Z,21.90
2022-08-17T08:05:50.335Z,21.86
2022-08-17T08:08:25.354Z,22.03
2022-08-17T08:11:01.471Z,21.95
2022-08-17T08:13:32.143Z,21.96
2022-08-17T08:16:23.783Z,22.01
2022-08-17T08:18:57.157Z,22.06
2022-08-17T08:21:36.981Z,22.26
2022-08-17T08:24:30.016Z,22.45
2022-08-17T08:27:09.738Z,22.88
2022-08-17T08:29:47.306Z,23.17
2022-08-17T08:32:20.957Z,23.20
2022-08-17T08:35:01.607Z,22.91
2022-08-17T08:37:43.609Z,23.23
2022-08-17T08:40:29.980Z,23.06
2022-08-17T08:43:09.024Z,23.52
2022-08-17T08:45:45.209Z,23.30
2022-08-17T08:48:53.187Z,23.61
2022-08-17T08:51:22.367Z,23.41
2022-08-17T08:53:59.446Z,23.66
2022-08-17T08:56:35.216Z,24.09
2022-08-17T08:59:13.761Z,23.96
2022-08-17T09:01:51.694Z,24.01
2022-08-17T09:05:02.684Z,24.20
2022-08-17T09:07:34.706Z,24.68
2022-08-17T09:10:09.525Z,24.88
2022-08-17T09:12:47.546Z,24.49
2022-08-17T09:15:19.982Z,24.30
2022-08-17T09:18:14.642Z,24.30
2022-08-17T09:20:50.161Z,24.39
2022-08-17T09:23:32.392Z,24.34
2022-08-17T09:26:07.729Z,24.44
2022-08-17T09:28:37.777Z,24.50
2022-08-17T09:31:09.729Z,24.29
2022-08-17T09:33:43.998Z,24.51
2022-08-17T09:36:15.800Z,24.27
2022-08-17T09:38:57.965Z,24.05
2022-08-17T09:41:32.326Z,23.90
2022-08-17T09:44:03.978Z,23.70
2022-08-17T09:46:38.723Z,23.74
2022-08-17T09:49:11.881Z,23.65
2022-08-17T09:51:44.376Z,23.66
2022-08-17T09:54:38.666Z,23.80
2022-08-17T09:57:29.779Z,23.97
2022-08-17T10:00:13.167Z,24.02
2022-08-17T10:02:58.252Z,24.23
2022-08-17T10:05:32.473Z,24.34
2022-08-17T10:08:09.862Z,24.28
2022-08-17T10:10:52.450Z,24.41
2022-08-17T10:13:36.689Z,24.70
2022-08-17T10:16:14.683Z,24.81
2022-08-17T10:18:51.643Z,25.04
2022-08-17T10:21:38.034Z,25.24
2022-08-17T10:24:36.179Z,25.45
2022-08-17T10:27:11.641Z,25.57
2022-08-17T10:29:49.021Z,25.59
2022-08-17T10:32:26.509Z,26.03
2022-08-17T10:35:18.860Z,26.25
2022-08-17T10:38:01.119Z,26.51
2022-08-17T10:40:36.458Z,26.28
2022-08-17T10:43:24.756Z,26.33
2022-08-17T10:46:30.375Z,26.47
2022-08-17T10:49:14.451Z,26.24
2022-08-17T10:51:43.018Z,26.22
2022-08-17T10:54:36.308Z,26.56
2022-08-17T10:57:23.957Z,26.53
2022-08-17T10:59:54.803Z,26.56
2022-08-17T11:02:31.369Z,26.51
2022-08-17T11:05:14.711Z,26.43
2022-08-17T11:07:58.624Z,26.60
2022-08-17T11:10:54.997Z,26.52
2022-08-17T11:13:37.659Z,26.43
2022-08-17T11:16:23.288Z,26.50
2022-08-17T11:19:11.638Z,26.38
2022-08-17T11:21:54.779Z,26.48
2022-08-17T11:24:30.507Z,26.50
2022-08-17T11:27:13.526Z,26.79
2022-08-17T11:29:56.740Z,26.93
2022-08-17T11:32:37.558Z,27.30
2022-08-17T11:35:15.685Z,27.55
2022-08-17T11:37:55.026Z,27.84
2022-08-17T11:40:43.069Z,27.62
2022-08-17T11:43:48.969Z,27.69
2022-08-17T11:46:51.726Z,27.22
2022-08-17T11:49:45.154Z,26.90
2022-08-17T11:52:38.454Z,26.95
2022-08-17T11:55:33.925Z,27.06
2022-08-17T11:58:01.698Z,27.16
2022-08-17T12:00:58.409Z,27.24
2022-08-17T12:03:58.785Z,27.02
2022-08-17T12:06:44.952Z,26.94
2022-08-17T12:09:18.403Z,27.09
2022-08-17T12:11:58.665Z,27.23
2022-08-17T12:15:09.078Z,27.29
2022-08-17T12:17:52.057Z,27.10
2022-08-17T12:20:24.180Z,27.21
2022-08-17T12:23:04.221Z,27.35
2022-08-17T12:25:37.375Z,27.03
2022-08-17T12:28:20.141Z,27.15
2022-08-17T12:30:50.435Z,27.12
2022-08-17T12:33:25.247Z,27.14
2022-08-17T12:36:02.819Z,27.38
2022-08-17T12:38:34.392Z,27.77
2022-08-17T12:41:25.276Z,28.42
2022-08-17T12:44:02.050Z,28.99
2022-08-17T12:46:33.445Z,29.32
2022-08-17T12:49:16.129Z,29.89
2022-08-17T12:51:45.529Z,30.60
2022-08-17T12:54:29.527Z,31.38
2022-08-17T12:57:06.613Z,31.98
2022-08-17T12:59:34.359Z,31.41
2022-08-17T13:02:02.321Z,31.24
2022-08-17T13:04:30.188Z,31.68
2022-08-17T13:07:00.193Z,31.77
2022-08-17T13:09:35.830Z,31.59
2022-08-17T13:12:08.888Z,32.05
2022-08-17T13:14:36.696Z,32.68
2022-08-17T13:17:08.584Z,32.55
2022-08-17T13:19:49.297Z,32.30
2022-08-17T13:22:18.294Z,32.24
2022-08-17T13:24:54.298Z,31.64
2022-08-17T13:27:24.975Z,31.41
2022-08-17T13:29:55.739Z,31.50
2022-08-17T13:32:35.832Z,31.57
2022-08-17T13:35:32.814Z,31.40
2022-08-17T13:38:10.422Z,31.67
2022-08-17T13:40:43.469Z,31.30
2022-08-17T13:43:12.420Z,31.73
2022-08-17T13:45:52.215Z,32.11
2022-08-17T13:48:27.619Z,31.93
2022-08-17T13:51:14.688Z,31.70
2022-08-17T13:53:53.390Z,31.61
2022-08-17T13:56:55.663Z,31.91
2022-08-17T13:59:52.886Z,31.97
2022-08-17T14:02:27.777Z,32.03
2022-08-17T14:04:56.333Z,31.73
2022-08-17T14:07:32.350Z,31.85
2022-08-17T14:10:03.218Z,31.57
2022-08-17T14:12:35.433Z,31.59
2022-08-17T14:15:03.302Z,31.82
2022-08-17T14:17:35.072Z,31.86
2022-08-17T14:20:09.328Z,31.59
2022-08-17T14:22:39.223Z,30.95
2022-08-17T14:25:10.331Z,30.81
2022-08-17T14:27:51.913Z,31.19
2022-08-17T14:30:23.331Z,30.91
2022-08-17T14:32:51.915Z,31.00
2022-08-17T14:35:22.284Z,30.34
2022-08-17T14:37:50.074Z,29.68
2022-08-17T14:40:20.733Z,30.05
2022-08-17T14:42:49.806Z,30.08
2022-08-17T14:45:30.356Z,30.26
2022-08-17T14:48:00.357Z,30.14
2022-08-17T14:50:28.087Z,30.38
2022-08-17T14:52:57.879Z,30.75
2022-08-17T14:55:25.996Z,30.69
2022-08-17T14:57:54.986Z,30.81
2022-08-17T15:00:22.872Z,31.04
2022-08-17T15:02:53.666Z,30.96
2022-08-17T15:05:24.641Z,30.25
2022-08-17T15:07:52.797Z,30.43
2022-08-17T15:10:21.379Z,30.34
2022-08-17T15:12:49.731Z,30.53
2022-08-17T15:15:19.206Z,30.74
2022-08-17T15:17:46.863Z,30.93
2022-08-17T15:20:17.327Z,30.72
2022-08-17T15:22:49.477Z,31.10
2022-08-17T15:25:18.826Z,31.27
2022-08-17T15:27:47.342Z,31.15
2022-08-17T15:30:15.468Z,31.22
2022-08-17T15:32:50.868Z,30.87
2022-08-17T15:35:26.804Z,30.94
2022-08-17T15:37:56.453Z,30.96
2022-08-17T15:40:25.027Z,30.86
2022-08-17T15:42:52.993Z,30.72
2022-08-17T15:45:24.735Z,30.81
2022-08-17T15:47:54.003Z,30.64
2022-08-17T15:50:22.032Z,30.25
2022-08-17T15:52:56.394Z,30.17
2022-08-17T15:55:24.425Z,30.12
2022-08-17T15:57:53.093Z,30.11
2022-08-17T16:00:23.538Z,30.09
2022-08-17T16:03:44.715Z,29.77
2022-08-17T16:05:42.549Z,29.86
2022-08-17T16:08:11.060Z,29.88
2022-08-17T16:10:38.982Z,30.06
2022-08-17T16:13:17.634Z,29.92
2022-08-17T16:15:49.741Z,29.56
2022-08-17T16:18:30.898Z,29.56
2022-08-17T16:21:19.118Z,29.53
2022-08-17T16:23:47.091Z,29.24
2022-08-17T16:26:15.090Z,29.46
2022-08-17T16:28:42.937Z,29.27
2022-08-17T16:31:10.871Z,29.44
2022-08-17T16:33:40.302Z,29.18
2022-08-17T16:36:09.100Z,29.07
2022-08-17T16:38:38.559Z,29.14
2022-08-17T16:41:07.147Z,29.09
2022-08-17T16:43:35.905Z,29.16
2022-08-17T16:46:03.571Z,29.13
2022-08-17T16:48:31.829Z,29.15
2022-08-17T16:51:04.276Z,28.86
2022-08-17T16:53:32.850Z,29.11
2022-08-17T16:56:00.517Z,29.20
2022-08-17T16:58:28.373Z,28.95
2022-08-17T17:00:59.616Z,28.78
2022-08-17T17:03:30.226Z,28.79
2022-08-17T17:06:13.375Z,28.75
2022-08-17T17:08:46.646Z,28.66
2022-08-17T17:11:19.225Z,28.64
2022-08-17T17:13:54.062Z,28.73
2022-08-17T17:16:29.249Z,28.66
2022-08-17T17:19:06.817Z,28.61
2022-08-17T17:21:44.569Z,28.65
2022-08-17T17:24:19.377Z,28.51
2022-08-17T17:27:08.698Z,28.55
2022-08-17T17:29:50.269Z,28.59
2022-08-17T17:32:22.720Z,28.60
2022-08-17T17:34:58.691Z,28.68
2022-08-17T17:37:34.797Z,28.65
2022-08-17T17:40:06.520Z,28.67
2022-08-17T17:42:40.187Z,28.61
2022-08-17T17:45:16.936Z,28.55
2022-08-17T17:47:45.598Z,28.51
2022-08-17T17:50:14.106Z,28.50
2022-08-17T17:52:51.163Z,28.48
2022-08-17T17:55:34.325Z,28.39
2022-08-17T17:58:13.268Z,28.25
2022-08-17T18:00:49.029Z,28.18
2022-08-17T18:03:35.070Z,28.03
2022-08-17T18:06:15.023Z,27.74
2022-08-17T18:08:57.256Z,27.84
2022-08-17T18:11:54.035Z,27.86
2022-08-17T18:14:43.199Z,27.79
2022-08-17T18:17:11.114Z,27.66
2022-08-17T18:19:40.859Z,27.51
2022-08-17T18:22:14.496Z,27.51
2022-08-17T18:24:46.120Z,27.45
2022-08-17T18:27:24.275Z,27.32
2022-08-17T18:29:54.086Z,27.09
2022-08-17T18:32:32.442Z,26.95
2022-08-17T18:35:27.797Z,26.73
2022-08-17T18:37:58.915Z,26.73
2022-08-17T18:40:36.270Z,26.53
2022-08-17T18:43:08.467Z,26.47
2022-08-17T18:45:40.778Z,26.49
2022-08-17T18:48:22.231Z,26.30
2022-08-17T18:50:53.550Z,26.25
2022-08-17T18:53:42.212Z,26.13
2022-08-17T18:56:30.512Z,26.14
2022-08-17T18:59:35.114Z,26.00
2022-08-17T19:02:34.630Z,25.89
2022-08-17T19:05:13.388Z,25.73
2022-08-17T19:07:43.684Z,25.61
2022-08-17T19:10:19.907Z,25.67
2022-08-17T19:12:52.690Z,25.60
2022-08-17T19:15:27.720Z,25.47
2022-08-17T19:18:00.302Z,25.46
2022-08-17T19:20:32.622Z,25.40
2022-08-17T19:23:21.239Z,25.30
2022-08-17T19:25:53.656Z,25.13
2022-08-17T19:28:25.685Z,25.00
2022-08-17T19:30:58.193Z,24.80
2022-08-17T19:33:26.851Z,24.76
2022-08-17T19:36:04.126Z,24.64
2022-08-17T19:38:45.900Z,24.72
2022-08-17T19:41:23.241Z,24.73
2022-08-17T19:44:12.676Z,24.50
2022-08-17T19:46:50.019Z,24.40
2022-08-17T19:49:32.816Z,24.34
2022-08-17T19:52:07.911Z,24.29
2022-08-17T19:54:41.454Z,24.15
2022-08-17T19:57:21.351Z,24.04
2022-08-17T19:59:55.027Z,24.02
2022-08-17T20:02:35.174Z,23.95
2022-08-17T20:05:18.044Z,23.87
2022-08-17T20:07:54.481Z,23.92
2022-08-17T20:10:39.412Z,23.85
2022-08-17T20:13:11.075Z,23.75
2022-08-17T20:15:42.794Z,23.67
2022-08-17T20:18:17.323Z,23.61
2022-08-17T20:20:56.679Z,23.60
2022-08-17T20:23:36.485Z,23.59
2022-08-17T20:26:17.167Z,23.53
2022-08-17T20:29:31.858Z,23.51
2022-08-17T20:32:26.561Z,23.51
2022-08-17T20:35:23.551Z,23.42
2022-08-17T20:37:55.760Z,23.43
2022-08-17T20:40:28.434Z,23.42
2022-08-17T20:42:57.067Z,23.35
2022-08-17T20:45:54.987Z,23.33
2022-08-17T20:48:38.057Z,23.31
2022-08-17T20:51:27.043Z,23.31
2022-08-17T20:54:26.412Z,23.29
2022-08-17T20:56:57.678Z,23.32
2022-08-17T21:00:18.167Z,23.27
2022-08-17T21:02:49.532Z,23.25
2022-08-17T21:05:59.782Z,23.18
2022-08-17T21:08:30.382Z,23.17
2022-08-17T21:11:00.150Z,23.20
2022-08-17T21:14:05.063Z,23.20
2022-08-17T21:16:42.249Z,23.16
2022-08-17T21:19:24.949Z,23.09
2022-08-17T21:22:04.106Z,23.09
2022-08-17T21:24:44.479Z,23.10
2022-08-17T21:27:26.939Z,23.05
2022-08-17T21:30:16.515Z,23.03
2022-08-17T21:33:25.008Z,22.97
2022-08-17T21:36:11.308Z,22.87
2022-08-17T21:38:42.559Z,22.75
2022-08-17T21:41:20.721Z,22.77
2022-08-17T21:43:51.986Z,22.69
2022-08-17T21:46:28.532Z,22.72
2022-08-17T21:49:03.337Z,22.69
2022-08-17T21:51:45.765Z,22.67
2022-08-17T21:54:30.836Z,22.74
2022-08-17T21:57:00.844Z,22.74
2022-08-17T21:59:31.652Z,22.77
2022-08-17T22:02:01.963Z,22.75
2022-08-17T22:04:31.916Z,22.70
2022-08-17T22:07:02.526Z,22.66
2022-08-17T22:09:33.350Z,22.69
2022-08-17T22:12:05.684Z,22.59
2022-08-17T22:14:52.345Z,22.57
2022-08-17T22:17:24.627Z,22.60
2022-08-17T22:19:54.831Z,22.56
2022-08-17T22:22:32.469Z,22.61
2022-08-17T22:25:02.433Z,22.64
2022-08-17T22:27:49.644Z,22.63
2022-08-17T22:30:30.575Z,22.63
2022-08-17T22:32:59.300Z,22.63
2022-08-17T22:35:34.442Z,22.58
2022-08-17T22:38:32.854Z,22.51
2022-08-17T22:41:30.099Z,22.55
2022-08-17T22:43:59.376Z,22.55
2022-08-17T22:46:27.452Z,22.54
2022-08-17T22:48:57.857Z,22.56
2022-08-17T22:51:30.218Z,22.59
2022-08-17T22:54:20.473Z,22.64
2022-08-17T22:57:18.743Z,22.87
2022-08-17T22:59:49.210Z,23.02
2022-08-17T23:02:21.370Z,23.09
2022-08-17T23:04:52.916Z,23.22
2022-08-17T23:07:22.212Z,23.20
2022-08-17T23:09:53.029Z,23.10
2022-08-17T23:12:27.138Z,23.19
2022-08-17T23:15:01.516Z,23.10
2022-08-17T23:17:33.859Z,22.83
2022-08-17T23:20:05.738Z,23.16
2022-08-17T23:22:34.151Z,22.90
2022-08-17T23:25:03.659Z,22.66
2022-08-17T23:27:32.247Z,22.85
2022-08-17T23:29:59.933Z,22.72
2022-08-17T23:32:28.483Z,22.56
2022-08-17T23:34:56.606Z,22.42
2022-08-17T23:37:25.928Z,22.53
2022-08-17T23:39:53.985Z,22.39
2022-08-17T23:42:23.042Z,22.53
2022-08-17T23:44:50.690Z,22.62
2022-08-17T23:47:18.474Z,22.48
2022-08-17T23:49:46.251Z,22.42
2022-08-17T23:52:16.381Z,22.29
2022-08-17T23:54:46.518Z,22.31
2022-08-17T23:57:16.672Z,22.41
2022-08-17T23:59:46.246Z,22.32
